Aviation Digital Data Service (ADDS)

Output produced by METARs form (1711 UTC 23 October 2014)
found at http://www.aviationweather.gov/adds/metars/
 
KMDT 231656Z 34019G28KT 10SM OVC032 14/07 A2985 RMK AO2 PK WND 32030/1643 SLP107 BINOVC T01440067
KMDT 231556Z 34013G24KT 10SM OVC031 13/06 A2987 RMK AO2 PK WND 32027/1538 SLP115 T01330061
KMDT 231456Z 34017G23KT 10SM OVC031 13/06 A2988 RMK AO2 SLP119 T01280061 55001
KMDT 231356Z 33010G21KT 10SM OVC031 12/06 A2988 RMK AO2 PK WND 33026/1303 SLP119 T01220061
KMDT 231256Z 34014G22KT 10SM OVC031 12/06 A2987 RMK AO2 SLP115 T01220056
KMDT 231156Z 35011G17KT 10SM OVC032 12/05 A2988 RMK AO2 SLP120 60000 70008 T01170050 10117 20111 53005
KMDT 231056Z 32012G18KT 10SM OVC032 12/05 A2987 RMK AO2 SLP116 T01170050 $
KMDT 230956Z 33013G20KT 10SM OVC031 12/05 A2988 RMK AO2 SLP119 T01170050 $
KMDT 230856Z 34011G25KT 10SM BKN031 OVC080 12/06 A2987 RMK AO2 PK WND 32026/0818 SLP116 60000 T01170056 55000
KMDT 230845Z 34018G24KT 10SM SCT031 BKN080 11/06 A2986 RMK AO2 PK WND 32026/0818 T01110056
KMDT 230756Z 35013G20KT 10SM BKN029 OVC060 12/06 A2987 RMK AO2 RAB19E39 SLP115 P0000 T01170056
KMDT 230656Z 33014G23KT 10SM OVC028 12/06 A2987 RMK AO2 PK WND 35028/0608 SLP116 T01170061
KMDT 230556Z 33016G25KT 10SM OVC026 11/06 A2987 RMK AO2 PRESFR SLP116 60000 T01110061 10117 20111 58023
KMDT 230456Z 34013G21KT 10SM OVC026 11/06 A2991 RMK AO2 PK WND 33029/0419 SLP128 T01110056 401330111
KMDT 230356Z 33017G25KT 10SM BKN025 11/06 A2992 RMK AO2 PK WND 33026/0308 SLP132 T01110056
KMDT 230256Z 33011G22KT 10SM BKN026 OVC060 11/06 A2994 RMK AO2 SLP140 60000 T01110056 58006
KMDT 230156Z 34013G23KT 10SM OVC028 11/06 A2995 RMK AO2 RAE16 SLP144 P0000 T01110056
KMDT 230056Z 33011KT 10SM -RA OVC028 11/06 A2996 RMK AO2 RAB40 SLP147 PCPN VRY LGT P0000 T01110061
KMDT 222356Z 33015KT 10SM OVC028 12/06 A2996 RMK AO2 SLP145 T01170061 10128 20117 50002
KMDT 222256Z 34014G26KT 10SM OVC026 12/06 A2997 RMK AO2 PK WND 34030/2232 SLP148 T01170061
KMDT 222156Z 34015G23KT 10SM BKN028 OVC040 12/07 A2995 RMK AO2 SLP144 T01220067
KMDT 222056Z 34014G22KT 10SM BKN025 BKN070 OVC100 12/07 A2995 RMK AO2 SLP144 T01220072 55001
KMDT 221956Z 35011G18KT 10SM BKN025 BKN040 OVC100 13/08 A2995 RMK AO2 SLP143 T01280078
KMDT 221856Z 34012G22KT 10SM BKN025 OVC035 13/08 A2995 RMK AO2 SLP143 T01280083
KMDT 221756Z 35010G19KT 10SM BKN022 OVC033 12/09 A2996 RMK AO2 PK WND 36028/1729 RAB08E19 SLP145 P0000 60008 T01220089 10133 20117 58004
KMDT 221745Z 35010G19KT 10SM BKN022 OVC033 12/09 A2996 RMK AO2 PK WND 36028/1729 RAB08E19 P0000 T01220089
KMDT 221656Z 34009KT 10SM FEW024 SCT030 OVC035 12/09 A2997 RMK AO2 RAE49 SLP149 P0002 T01170094
KMDT 221556Z 33010KT 10SM -RA OVC020 12/09 A2998 RMK AO2 SLP151 P0004 T01170094
KMDT 221456Z 34009KT 10SM -RA FEW022 OVC029 12/09 A2997 RMK AO2 SLP150 P0001 60002 T01220094 51012
KMDT 221430Z 35007KT 10SM -RA FEW022 OVC031 12/09 A2996 RMK AO2 P0000 T01220094
KMDT 221356Z 34011KT 9SM -RA OVC027 12/09 A2996 RMK AO2 RAB32 SLP147 P0001 T01220094
KMDT 221256Z 35011KT 10SM OVC026 13/08 A2995 RMK AO2 SLP144 T01330083
KMDT 221213Z 34008KT 10SM BKN029 OVC050 13/08 A2994 RMK AO2 T01280083
KMDT 221156Z 34009KT 10SM FEW026 BKN031 OVC060 13/08 A2993 RMK AO2 SLP138 T01280083 10128 20117 53011
KMDT 221056Z 34009KT 10SM BKN033 OVC040 13/08 A2992 RMK AO2 SLP133 T01280083
KMDT 220956Z 34007KT 10SM SCT025 OVC048 13/08 A2991 RMK AO2 SLP129 T01280083
KMDT 220856Z 32006KT 10SM BKN025 BKN035 OVC060 12/09 A2990 RMK AO2 SLP126 T01220089 53003
KMDT 220756Z 00000KT 10SM OVC026 13/09 A2989 RMK AO2 SLP122 T01280089
KMDT 220732Z 31005KT 10SM BKN027 OVC047 12/09 A2989 RMK AO2 T01220089
KMDT 220656Z 31007KT 10SM BKN045 OVC065 12/09 A2989 RMK AO2 SLP123 T01220089
KMDT 220556Z 31007KT 10SM OVC055 12/09 A2989 RMK AO2 SLP122 T01220089 10128 20117 57009